Pernik, Bulgaria
Current Conditions -  °F | °C
As of 9:00 AM on Sunday 21 Dec 2014 (Local Time) from LBSF Reporting Station
Moderate Fog Moderate Fog  
Wind Chill: 34°   Ceiling: 400
Heat Index: 34°   Visibility: 0.37mi
Dew Point: 34°   Wind: 2mph
Humidity: 100%   Direction: 240°WSW
Pressure: 30.06"   Gusts: NA
Location:  42.61°N, 23.03°E
Report Text: LBSF 210600Z 24002KT 0600 R09/P2000N FG SCT002 OVC004 01/01 Q1018 TEMPO 0800 BCFG
Loading
Personal Weather Stations






























Interactive Weather Map New forecast layout! Learn more

10-Day Weather Forecast

Advertisements
Track Severe Weather on mobile